Time;durP1;ratioP1;P1;durP2;ratioP2;P2;SDS_P1;SDS_P2;PMS_P1;PMS_P2;Temp;Humidity;BMP_temperature;BMP_pressure;BME280_temperature;BME280_humidity;BME280_pressure;Samples;Min_cycle;Max_cycle;Signal;HPM_P1;HPM_P2
2021/07/12 00:01:50;;;;;;;9.50;7.93;;;;;;;20.34;68.78;101646.00;5060213;28;20063;-48
2021/07/12 00:04:17;;;;;;;10.30;7.28;;;;;;;20.34;68.50;101640.53;5060923;28;20067;-48
2021/07/12 00:06:43;;;;;;;7.90;7.07;;;;;;;20.32;68.73;101640.84;5042809;28;20024;-49
2021/07/12 00:09:08;;;;;;;9.07;6.85;;;;;;;20.29;68.69;101652.31;5063414;28;20034;-48
2021/07/12 00:11:34;;;;;;;8.18;7.10;;;;;;;20.31;68.60;101646.56;5064798;28;20021;-48
2021/07/12 00:13:59;;;;;;;9.60;7.18;;;;;;;20.16;69.19;101642.94;5062449;28;20088;-48
2021/07/12 00:16:24;;;;;;;8.63;6.88;;;;;;;20.07;69.46;101647.38;5064718;28;20028;-48
2021/07/12 00:18:50;;;;;;;9.40;7.10;;;;;;;20.05;69.34;101640.63;5063222;28;20115;-48
2021/07/12 00:21:16;;;;;;;8.30;6.95;;;;;;;20.03;69.38;101637.38;5064066;28;20060;-48
2021/07/12 00:23:42;;;;;;;7.10;6.40;;;;;;;19.96;69.82;101650.53;5062162;28;20056;-48
2021/07/12 00:26:07;;;;;;;8.23;7.35;;;;;;;19.83;70.18;101641.94;5059775;28;20056;-51
2021/07/12 00:28:33;;;;;;;7.63;6.82;;;;;;;19.95;69.53;101646.19;5059962;28;20024;-49
2021/07/12 00:30:59;;;;;;;10.95;7.38;;;;;;;19.85;69.93;101641.66;5063225;28;20021;-49
2021/07/12 00:33:24;;;;;;;7.97;6.78;;;;;;;19.88;69.52;101647.31;5062695;28;20029;-48
2021/07/12 00:35:50;;;;;;;8.65;7.05;;;;;;;19.83;69.35;101647.38;5062743;28;20028;-48
2021/07/12 00:38:16;;;;;;;8.73;7.03;;;;;;;19.79;69.67;101648.25;5059892;28;20027;-48
2021/07/12 00:40:41;;;;;;;9.90;7.18;;;;;;;19.82;69.54;101651.22;5062981;28;20459;-48
2021/07/12 00:43:07;;;;;;;10.27;7.47;;;;;;;19.72;69.88;101647.78;5047092;28;20029;-48
2021/07/12 00:45:35;;;;;;;10.13;6.75;;;;;;;19.80;69.39;101647.97;5063955;28;20479;-48
2021/07/12 00:48:00;;;;;;;9.90;7.13;;;;;;;19.66;70.07;101648.94;5062780;28;20414;-48
2021/07/12 00:50:29;;;;;;;9.57;6.70;;;;;;;19.72;69.32;101655.94;5061490;28;20046;-48
2021/07/12 00:52:56;;;;;;;12.23;6.93;;;;;;;19.72;68.81;101647.78;5058096;28;20078;-48
2021/07/12 00:55:28;;;;;;;7.55;6.75;;;;;;;19.73;68.76;101652.09;5062598;28;20024;-48
2021/07/12 00:57:53;;;;;;;8.65;6.38;;;;;;;19.77;68.60;101645.03;5063723;28;20028;-48
2021/07/12 01:00:21;;;;;;;7.50;6.30;;;;;;;19.80;68.28;101639.81;5061586;28;20474;-48
2021/07/12 01:02:47;;;;;;;7.82;6.10;;;;;;;19.73;68.46;101633.88;5061868;28;20468;-48
2021/07/12 01:05:16;;;;;;;8.38;6.63;;;;;;;19.69;68.54;101637.47;5061743;28;20048;-49
2021/07/12 01:07:44;;;;;;;10.50;6.82;;;;;;;19.69;68.23;101648.34;5062924;28;20031;-48
2021/07/12 01:10:11;;;;;;;7.00;6.30;;;;;;;19.63;68.42;101649.50;5059805;28;20024;-48
2021/07/12 01:12:45;;;;;;;9.85;6.07;;;;;;;19.61;68.34;101647.88;5062960;28;20484;-48
2021/07/12 01:15:15;;;;;;;8.88;6.72;;;;;;;19.58;68.53;101645.75;5064066;28;20020;-47
2021/07/12 01:18:03;;;;;;;8.65;6.78;;;;;;;19.57;68.74;101640.59;5061172;28;20031;-48
2021/07/12 01:21:02;;;;;;;10.23;7.38;;;;;;;19.45;69.25;101640.94;5058172;28;21218;-48
2021/07/12 01:23:52;;;;;;;7.32;6.63;;;;;;;19.36;69.52;101634.47;5059839;28;20137;-49
2021/07/12 01:26:55;;;;;;;10.07;7.07;;;;;;;19.35;69.50;101637.50;5062581;28;20025;-48
2021/07/12 01:29:27;;;;;;;7.40;6.50;;;;;;;19.25;70.39;101635.69;5063150;28;20051;-48
2021/07/12 01:32:11;;;;;;;11.52;7.20;;;;;;;19.22;70.44;101633.53;5061307;28;20013;-48
2021/07/12 01:34:45;;;;;;;7.72;6.75;;;;;;;19.28;70.04;101635.13;5060635;28;20158;-48
2021/07/12 01:37:11;;;;;;;10.23;6.95;;;;;;;19.32;69.54;101636.16;5062810;28;20138;-48
2021/07/12 01:39:45;;;;;;;8.40;7.07;;;;;;;19.35;69.42;101643.75;5063358;28;20025;-48
2021/07/12 01:42:43;;;;;;;9.73;7.53;;;;;;;19.29;70.38;101645.69;5060745;28;20073;-48
2021/07/12 01:45:13;;;;;;;7.93;6.60;;;;;;;19.25;69.98;101633.78;5027674;28;20477;-48
2021/07/12 01:48:03;;;;;;;7.85;6.55;;;;;;;19.23;70.05;101643.31;5058471;28;20073;-48
2021/07/12 01:50:34;;;;;;;7.40;6.70;;;;;;;19.17;70.94;101652.59;5059528;28;20447;-48
2021/07/12 01:53:23;;;;;;;9.40;6.68;;;;;;;18.92;73.10;101646.25;5062767;28;20547;-49
2021/07/12 01:56:22;;;;;;;8.88;6.75;;;;;;;18.99;71.30;101646.72;5059554;28;20025;-48
2021/07/12 01:58:57;;;;;;;12.20;7.10;;;;;;;18.70;74.27;101662.97;5059927;28;20056;-48
2021/07/12 02:01:27;;;;;;;7.97;7.00;;;;;;;18.85;72.54;101656.63;5061169;28;20466;-48
2021/07/12 02:03:54;;;;;;;8.13;7.32;;;;;;;18.87;72.66;101653.63;5060046;28;20328;-48
2021/07/12 02:06:21;;;;;;;10.23;7.63;;;;;;;18.90;72.75;101651.16;5059622;28;20024;-48
2021/07/12 02:08:49;;;;;;;10.30;7.85;;;;;;;18.86;73.25;101655.53;5059810;28;20059;-48
2021/07/12 02:11:17;;;;;;;13.45;7.72;;;;;;;18.88;72.96;101649.81;5058386;28;20025;-48
2021/07/12 02:13:46;;;;;;;8.52;7.18;;;;;;;18.86;73.35;101641.16;5056579;28;20025;-47
2021/07/12 02:16:13;;;;;;;10.48;7.82;;;;;;;18.85;73.37;101640.34;5061781;28;20021;-48
2021/07/12 02:18:40;;;;;;;10.93;8.45;;;;;;;18.76;73.96;101639.28;5058431;28;20078;-48
2021/07/12 02:21:07;;;;;;;7.93;6.80;;;;;;;18.78;73.61;101650.69;5062689;28;20040;-48
2021/07/12 02:23:35;;;;;;;9.98;7.30;;;;;;;18.78;73.58;101639.81;5061747;28;20113;-48
2021/07/12 02:26:01;;;;;;;8.48;7.55;;;;;;;18.87;73.28;101637.34;5062803;28;20028;-48
2021/07/12 02:28:27;;;;;;;8.45;7.50;;;;;;;18.88;72.99;101639.78;5057370;28;20371;-48
2021/07/12 02:30:54;;;;;;;11.00;8.10;;;;;;;18.86;73.33;101635.72;5060140;28;20032;-48
2021/07/12 02:33:22;;;;;;;9.32;8.07;;;;;;;18.85;73.44;101634.91;5062430;28;20032;-48
2021/07/12 02:35:48;;;;;;;10.05;8.90;;;;;;;18.86;73.44;101628.38;5060292;28;20349;-48
2021/07/12 02:38:15;;;;;;;9.25;8.32;;;;;;;18.85;73.62;101634.91;5058238;28;20029;-48
2021/07/12 02:40:44;;;;;;;8.70;7.70;;;;;;;18.86;73.74;101630.28;5058900;28;20028;-48
2021/07/12 02:43:12;;;;;;;9.57;7.82;;;;;;;18.81;73.81;101622.16;5058708;28;20447;-48
2021/07/12 02:45:38;;;;;;;8.45;7.55;;;;;;;18.81;73.78;101619.44;5061205;28;20505;-48
2021/07/12 02:48:04;;;;;;;8.57;7.75;;;;;;;18.81;73.71;101620.25;5061271;28;20487;-49
2021/07/12 02:50:30;;;;;;;10.50;7.72;;;;;;;18.79;73.82;101617.00;5059417;28;20406;-48
2021/07/12 02:53:11;;;;;;;8.43;7.63;;;;;;;18.74;74.05;101614.34;5066841;28;20024;-47
2021/07/12 02:55:37;;;;;;;11.10;7.55;;;;;;;18.77;73.88;101619.19;5066482;28;20024;-48
2021/07/12 02:58:03;;;;;;;8.00;7.20;;;;;;;18.80;73.69;101620.53;5064267;28;20039;-48
2021/07/12 03:00:29;;;;;;;10.65;7.60;;;;;;;18.81;73.80;101622.97;5064313;28;21741;-48
2021/07/12 03:02:54;;;;;;;8.57;7.68;;;;;;;18.83;73.83;101618.06;5063466;28;20536;-48
2021/07/12 03:05:20;;;;;;;10.10;7.47;;;;;;;18.83;73.97;101611.81;5061721;28;20108;-48
2021/07/12 03:08:08;;;;;;;11.77;7.05;;;;;;;18.88;73.58;101619.94;5060490;28;20024;-50
2021/07/12 03:10:41;;;;;;;8.10;7.20;;;;;;;18.91;73.72;101622.91;5036879;28;20032;-48
2021/07/12 03:13:14;;;;;;;8.48;7.60;;;;;;;18.94;73.72;101611.47;5062933;28;20034;-47
2021/07/12 03:15:42;;;;;;;8.85;7.95;;;;;;;18.97;74.01;101602.75;5064749;28;20020;-48
2021/07/12 03:18:28;;;;;;;8.68;7.38;;;;;;;18.97;74.15;101600.03;5048039;28;20025;-48
2021/07/12 03:20:56;;;;;;;10.27;7.18;;;;;;;19.02;74.00;101610.03;5063909;28;20060;-48
2021/07/12 03:23:23;;;;;;;9.80;7.93;;;;;;;19.05;74.10;101597.84;5060327;28;20035;-49
2021/07/12 03:25:53;;;;;;;8.77;7.72;;;;;;;19.07;74.40;101601.06;5062719;28;20486;-48
2021/07/12 03:28:20;;;;;;;8.25;6.28;;;;;;;19.13;74.16;101606.16;5062874;28;22276;-48
2021/07/12 03:30:48;;;;;;;9.38;7.28;;;;;;;19.18;74.26;101603.41;5044790;28;20043;-48
2021/07/12 03:33:22;;;;;;;8.80;7.10;;;;;;;19.22;74.23;101606.38;5042398;28;20024;-48
2021/07/12 03:35:49;;;;;;;9.57;7.35;;;;;;;19.27;73.85;101606.31;5059546;28;20024;-48
2021/07/12 03:38:17;;;;;;;7.70;6.80;;;;;;;19.32;73.77;101603.56;5063123;28;20029;-48
2021/07/12 03:40:43;;;;;;;9.52;7.40;;;;;;;19.32;74.21;101607.06;5065058;28;20031;-48
2021/07/12 03:43:10;;;;;;;9.15;6.95;;;;;;;19.39;73.88;101611.34;5064764;28;20029;-48
2021/07/12 03:45:39;;;;;;;7.95;7.15;;;;;;;19.43;73.93;101602.38;5064265;28;20032;-48
2021/07/12 03:48:09;;;;;;;9.20;7.28;;;;;;;19.48;74.11;101605.03;5066042;28;20498;-49
2021/07/12 03:50:35;;;;;;;8.15;6.47;;;;;;;19.55;73.73;101605.53;5063023;28;20024;-48
2021/07/12 03:53:02;;;;;;;9.70;6.90;;;;;;;19.60;73.50;101608.22;5063520;28;20024;-49
2021/07/12 03:55:30;;;;;;;8.25;7.10;;;;;;;19.66;73.68;101600.81;5061279;28;20029;-47
2021/07/12 03:57:58;;;;;;;7.93;6.70;;;;;;;19.70;73.70;101595.59;5059759;28;20205;-48
2021/07/12 04:00:26;;;;;;;9.50;6.40;;;;;;;19.77;73.25;101601.53;5045902;28;20040;-49
2021/07/12 04:02:52;;;;;;;7.97;7.00;;;;;;;19.79;73.17;101597.41;5060229;28;20066;-48
2021/07/12 04:05:23;;;;;;;10.13;7.18;;;;;;;19.82;73.08;101593.28;5062784;28;20076;-49
2021/07/12 04:07:49;;;;;;;9.45;6.53;;;;;;;19.84;73.15;101597.34;5060404;28;20660;-50
2021/07/12 04:10:15;;;;;;;8.57;7.55;;;;;;;19.83;73.23;101600.34;5063077;28;20037;-48
2021/07/12 04:12:42;;;;;;;7.93;6.90;;;;;;;19.80;73.45;101600.94;5062643;28;20090;-52
2021/07/12 04:15:10;;;;;;;7.78;7.07;;;;;;;19.81;73.37;101599.84;5061082;28;20914;-49
2021/07/12 04:17:36;;;;;;;10.27;7.13;;;;;;;19.80;73.29;101590.88;5061296;28;20032;-49
2021/07/12 04:20:03;;;;;;;8.13;7.18;;;;;;;19.70;74.15;101599.13;5060791;28;20142;-48
2021/07/12 04:22:29;;;;;;;8.30;7.47;;;;;;;19.72;74.25;101593.41;5060631;28;20771;-51
2021/07/12 04:24:54;;;;;;;7.75;7.05;;;;;;;19.69;74.25;101593.97;5061374;28;20040;-50
2021/07/12 04:27:20;;;;;;;9.55;7.07;;;;;;;19.71;73.94;101589.06;5063868;28;20028;-48
2021/07/12 04:29:45;;;;;;;7.85;7.05;;;;;;;19.73;73.97;101586.84;5061881;28;20025;-49
2021/07/12 04:32:11;;;;;;;9.77;7.22;;;;;;;19.68;74.52;101589.63;5061654;28;20417;-49
2021/07/12 04:34:37;;;;;;;7.95;7.05;;;;;;;19.77;74.42;101582.47;5060931;28;20051;-48
2021/07/12 04:37:03;;;;;;;7.75;6.78;;;;;;;19.79;74.01;101583.00;5061897;28;20055;-49
2021/07/12 04:39:29;;;;;;;7.13;6.40;;;;;;;19.83;74.00;101578.59;5060541;28;21727;-49
2021/07/12 04:41:55;;;;;;;7.45;6.72;;;;;;;19.83;74.15;101584.03;5060094;28;20116;-48
2021/07/12 04:44:21;;;;;;;7.05;6.38;;;;;;;19.86;73.90;101580.72;5062059;28;20028;-49
2021/07/12 04:46:48;;;;;;;7.38;6.63;;;;;;;19.87;74.03;101576.91;5060691;28;20437;-49
2021/07/12 04:49:14;;;;;;;9.30;7.07;;;;;;;19.89;74.22;101580.16;5060090;28;20514;-48
2021/07/12 04:51:39;;;;;;;9.00;6.78;;;;;;;19.92;74.09;101587.72;5060023;28;20020;-51
2021/07/12 04:54:05;;;;;;;7.85;6.68;;;;;;;19.94;73.79;101584.75;5063031;28;20037;-49
2021/07/12 04:56:31;;;;;;;7.30;6.50;;;;;;;19.97;73.77;101584.97;5060350;28;20028;-50
2021/07/12 04:58:57;;;;;;;7.82;7.03;;;;;;;20.01;73.65;101588.72;5062849;28;20027;-48
2021/07/12 05:01:24;;;;;;;8.80;7.90;;;;;;;19.99;73.63;101584.66;5059458;28;20035;-49
2021/07/12 05:03:49;;;;;;;8.85;6.65;;;;;;;19.94;74.27;101582.81;5060814;28;20036;-48
2021/07/12 05:06:15;;;;;;;12.27;6.88;;;;;;;19.95;74.21;101575.47;5042457;28;20017;-49
2021/07/12 05:08:40;;;;;;;8.00;6.85;;;;;;;19.99;74.12;101582.75;5060501;28;20029;-50
2021/07/12 05:11:06;;;;;;;9.30;7.05;;;;;;;20.03;73.90;101583.78;5060667;28;20020;-48
2021/07/12 05:13:34;;;;;;;7.85;7.13;;;;;;;20.09;73.98;101587.25;5059391;28;20486;-48
2021/07/12 05:16:00;;;;;;;10.55;7.97;;;;;;;20.06;74.09;101571.50;5063674;28;20024;-48
2021/07/12 05:18:25;;;;;;;8.95;7.40;;;;;;;19.98;74.52;101570.25;5063254;28;20040;-48
2021/07/12 05:20:51;;;;;;;8.40;7.28;;;;;;;20.03;74.34;101572.91;5062868;28;20383;-48
2021/07/12 05:23:18;;;;;;;8.38;7.60;;;;;;;20.01;74.54;101568.88;5064551;28;20039;-48
2021/07/12 05:25:43;;;;;;;9.23;7.15;;;;;;;20.00;74.88;101565.34;5064883;28;20031;-48
2021/07/12 05:28:09;;;;;;;10.05;7.43;;;;;;;20.00;74.90;101561.81;5064569;28;20020;-51
2021/07/12 05:30:34;;;;;;;8.68;7.40;;;;;;;20.06;74.43;101561.44;5064071;28;20024;-49
2021/07/12 05:33:00;;;;;;;7.85;6.82;;;;;;;20.02;74.38;101568.56;5062790;28;20509;-48
2021/07/12 05:35:26;;;;;;;7.60;6.78;;;;;;;20.01;74.27;101563.41;5061059;28;20040;-48
2021/07/12 05:37:51;;;;;;;8.15;6.85;;;;;;;20.01;74.45;101574.31;5061722;28;20082;-48
2021/07/12 05:40:17;;;;;;;8.05;7.15;;;;;;;20.00;74.69;101572.69;5062675;28;20053;-50
2021/07/12 05:42:42;;;;;;;8.23;6.72;;;;;;;19.98;74.75;101588.50;5060910;28;20039;-48
2021/07/12 05:45:08;;;;;;;12.93;7.65;;;;;;;20.00;74.51;101584.38;5060319;28;20021;-49
2021/07/12 05:47:34;;;;;;;7.55;6.78;;;;;;;19.85;75.29;101576.41;5059909;28;20416;-53
2021/07/12 05:49:59;;;;;;;7.95;6.90;;;;;;;19.89;74.92;101572.78;5061554;28;20093;-51
2021/07/12 05:52:25;;;;;;;7.95;6.47;;;;;;;19.94;74.83;101565.69;5062125;28;20173;-49
2021/07/12 05:54:51;;;;;;;8.13;7.32;;;;;;;19.89;75.31;101561.09;5060908;28;20123;-48
2021/07/12 05:57:16;;;;;;;8.95;7.32;;;;;;;19.93;74.95;101564.88;5062577;28;20105;-52
2021/07/12 05:59:42;;;;;;;10.23;8.38;;;;;;;20.02;74.69;101563.13;5062174;28;20111;-49
2021/07/12 06:02:07;;;;;;;8.65;7.18;;;;;;;20.05;74.65;101564.44;5061342;28;20102;-48
2021/07/12 06:04:33;;;;;;;8.13;7.32;;;;;;;19.88;75.94;101568.47;5060719;28;20054;-49
2021/07/12 06:06:59;;;;;;;8.52;7.22;;;;;;;19.99;75.69;101571.88;5060539;28;20165;-49
2021/07/12 06:09:24;;;;;;;8.90;7.20;;;;;;;20.11;74.67;101569.56;5059802;28;20028;-48
2021/07/12 06:11:50;;;;;;;8.90;7.22;;;;;;;20.25;74.17;101557.94;5063037;28;20025;-48
2021/07/12 06:14:15;;;;;;;6.70;6.10;;;;;;;20.37;73.91;101556.41;5058780;28;20058;-49
2021/07/12 06:16:41;;;;;;;7.18;6.43;;;;;;;20.46;74.10;101564.72;5061140;28;20553;-51
2021/07/12 06:19:07;;;;;;;9.23;6.90;;;;;;;20.35;74.89;101585.00;5060529;28;20012;-51
2021/07/12 06:21:32;;;;;;;9.10;6.55;;;;;;;20.41;74.36;101578.41;5060432;28;20024;-49
2021/07/12 06:23:58;;;;;;;9.27;7.10;;;;;;;20.43;74.21;101585.19;5059006;28;20504;-49
2021/07/12 06:26:23;;;;;;;8.07;7.28;;;;;;;20.33;74.59;101581.78;5063830;28;20143;-48
2021/07/12 06:28:49;;;;;;;8.85;7.95;;;;;;;20.27;75.14;101586.47;5063954;28;20494;-48
2021/07/12 06:31:14;;;;;;;8.10;6.88;;;;;;;20.32;74.80;101577.44;5064042;28;20032;-48
2021/07/12 06:33:40;;;;;;;7.22;6.53;;;;;;;20.46;74.28;101575.63;5064009;28;20054;-50
2021/07/12 06:36:07;;;;;;;7.72;6.93;;;;;;;20.51;74.29;101576.38;5064687;28;20032;-51
2021/07/12 06:38:33;;;;;;;8.07;7.28;;;;;;;20.64;73.90;101593.06;5061949;28;20044;-49
2021/07/12 06:40:59;;;;;;;8.43;7.60;;;;;;;20.58;74.54;101595.06;5065227;28;20025;-50
2021/07/12 06:43:24;;;;;;;8.20;7.38;;;;;;;20.66;73.89;101596.31;5065924;28;20115;-49
2021/07/12 06:45:50;;;;;;;7.47;6.13;;;;;;;20.74;73.41;101603.81;5064104;28;21030;-50
2021/07/12 06:48:15;;;;;;;8.50;6.47;;;;;;;20.68;73.73;101605.81;5064639;28;20095;-47
2021/07/12 06:50:41;;;;;;;10.70;7.00;;;;;;;20.64;74.07;101606.66;5063402;28;20032;-48
2021/07/12 06:53:06;;;;;;;16.67;7.25;;;;;;;20.65;74.46;101613.75;5064649;28;20040;-49
2021/07/12 06:55:32;;;;;;;7.88;6.60;;;;;;;20.60;74.74;101609.19;5062710;28;20082;-48
2021/07/12 06:58:00;;;;;;;9.27;7.15;;;;;;;20.59;75.00;101604.84;5064874;28;20040;-49
2021/07/12 07:00:26;;;;;;;10.35;7.82;;;;;;;20.52;76.22;101616.09;5060741;28;20109;-48
2021/07/12 07:02:51;;;;;;;7.78;6.85;;;;;;;20.56;75.90;101601.91;5066137;28;20024;-52
2021/07/12 07:05:17;;;;;;;10.80;7.53;;;;;;;20.55;76.49;101609.25;5063365;28;20382;-49
2021/07/12 07:07:42;;;;;;;8.43;7.57;;;;;;;20.44;77.22;101618.66;5065861;28;20054;-48
2021/07/12 07:10:08;;;;;;;9.25;7.30;;;;;;;20.54;76.34;101613.09;5039827;28;20302;-48
2021/07/12 07:12:34;;;;;;;8.90;8.00;;;;;;;20.61;76.48;101610.78;5063897;28;20158;-48
2021/07/12 07:15:00;;;;;;;9.60;8.00;;;;;;;20.65;76.67;101609.13;5062976;28;20035;-48
2021/07/12 07:17:26;;;;;;;8.55;7.68;;;;;;;20.72;76.60;101609.56;5064418;28;20111;-47
2021/07/12 07:19:51;;;;;;;10.95;9.38;;;;;;;20.77;76.78;101612.19;5064078;28;20458;-48
2021/07/12 07:22:17;;;;;;;10.50;7.72;;;;;;;20.85;77.11;101607.19;5062924;28;20036;-49
2021/07/12 07:24:43;;;;;;;10.32;8.20;;;;;;;20.91;77.21;101609.53;5062271;28;20124;-49
2021/07/12 07:27:09;;;;;;;9.00;7.90;;;;;;;20.92;76.88;101604.91;5062937;28;20055;-49
2021/07/12 07:29:35;;;;;;;9.45;7.53;;;;;;;20.93;76.38;101607.31;5064031;28;20020;-49
2021/07/12 07:32:01;;;;;;;9.90;8.57;;;;;;;20.92;76.49;101604.91;5063366;28;20497;-47
2021/07/12 07:34:28;;;;;;;8.90;7.25;;;;;;;20.90;76.41;101591.56;5064041;28;20059;-48
2021/07/12 07:36:56;;;;;;;10.55;8.85;;;;;;;20.95;76.52;101593.41;5062625;28;20059;-50
2021/07/12 07:39:22;;;;;;;8.55;7.32;;;;;;;20.89;76.82;101594.59;5063748;28;20028;-48
2021/07/12 07:41:47;;;;;;;10.15;8.50;;;;;;;20.91;77.24;101595.09;5063903;28;20036;-49
2021/07/12 07:44:14;;;;;;;9.90;7.82;;;;;;;20.96;76.79;101590.38;5063351;28;20085;-48
2021/07/12 07:46:40;;;;;;;11.27;8.65;;;;;;;20.91;77.14;101582.28;5062828;28;20478;-48
2021/07/12 07:49:07;;;;;;;12.43;8.68;;;;;;;20.94;77.19;101591.78;5064731;28;20058;-47
2021/07/12 07:51:33;;;;;;;11.57;8.27;;;;;;;20.92;77.31;101594.81;5061907;28;20024;-48
2021/07/12 07:53:59;;;;;;;11.32;9.00;;;;;;;21.10;76.94;101585.78;5064104;28;20028;-49
2021/07/12 07:56:25;;;;;;;11.23;7.90;;;;;;;21.32;76.03;101597.97;5061264;28;20528;-50
2021/07/12 07:58:50;;;;;;;8.77;7.65;;;;;;;21.49;75.35;101581.03;5061436;28;20032;-48
2021/07/12 08:01:15;;;;;;;10.27;8.48;;;;;;;21.64;75.17;101597.13;5063624;28;20116;-48
2021/07/12 08:03:41;;;;;;;9.40;8.30;;;;;;;21.83;74.64;101597.03;5063250;28;20060;-48
2021/07/12 08:06:06;;;;;;;10.20;8.32;;;;;;;21.93;74.27;101602.28;5062942;28;20036;-48
2021/07/12 08:08:32;;;;;;;13.60;9.77;;;;;;;21.85;74.22;101606.53;5062244;28;20035;-48
2021/07/12 08:10:57;;;;;;;11.70;8.52;;;;;;;21.56;74.74;101600.56;5065143;28;20028;-49
2021/07/12 08:13:24;;;;;;;14.05;8.75;;;;;;;21.52;74.96;101594.88;5060445;28;20036;-50
2021/07/12 08:15:50;;;;;;;10.13;8.48;;;;;;;21.49;75.37;101595.47;5065377;28;20034;-48
2021/07/12 08:18:15;;;;;;;10.68;8.88;;;;;;;21.55;75.19;101588.84;5061262;28;20029;-48
2021/07/12 08:20:45;;;;;;;11.57;9.90;;;;;;;21.40;76.40;101578.22;5062676;28;20311;-49
2021/07/12 08:23:10;;;;;;;13.00;9.27;;;;;;;21.63;75.89;101581.88;5061971;28;20031;-50
2021/07/12 08:25:36;;;;;;;12.05;8.88;;;;;;;22.01;74.96;101590.66;5063746;28;20260;-48
2021/07/12 08:28:03;;;;;;;10.70;8.60;;;;;;;;;;5059618;28;20028;-50
2021/07/12 08:30:29;;;;;;;9.73;8.68;;;;;;;22.78;73.11;101585.13;5063304;28;20029;-48
2021/07/12 08:32:54;;;;;;;13.07;8.40;;;;;;;23.26;72.06;101572.78;5062494;28;20025;-49
2021/07/12 08:35:20;;;;;;;8.48;7.25;;;;;;;23.52;70.03;101574.53;5062910;28;20032;-49
2021/07/12 08:37:52;;;;;;;7.80;7.07;;;;;;;23.80;69.57;101564.19;5061287;28;20036;-49
2021/07/12 08:40:21;;;;;;;7.53;6.72;;;;;;;24.34;68.03;101564.00;5062645;28;20062;-49
2021/07/12 08:42:50;;;;;;;8.55;7.20;;;;;;;24.64;67.40;101556.75;5061341;28;20039;-49
2021/07/12 08:45:16;;;;;;;8.55;7.65;;;;;;;24.84;67.02;101556.09;5061900;28;20021;-48
2021/07/12 08:47:41;;;;;;;8.43;7.55;;;;;;;24.74;67.27;101566.56;5062358;28;20658;-48
2021/07/12 08:50:08;;;;;;;10.27;7.75;;;;;;;24.76;66.85;101559.63;5060624;28;20514;-49
2021/07/12 08:52:33;;;;;;;8.25;7.22;;;;;;;24.91;66.49;101548.16;5061999;28;20410;-49
2021/07/12 08:54:59;;;;;;;7.95;6.88;;;;;;;24.96;66.93;101552.69;5062291;28;20021;-51
2021/07/12 08:57:25;;;;;;;7.90;6.78;;;;;;;25.15;65.95;101552.34;5061233;28;20024;-49
2021/07/12 08:59:54;;;;;;;8.73;7.25;;;;;;;25.45;64.39;101539.50;5060972;28;20074;-50
2021/07/12 09:02:21;;;;;;;9.60;7.57;;;;;;;25.95;64.22;101545.06;5058895;28;20481;-51
2021/07/12 09:04:52;;;;;;;9.90;8.40;;;;;;;26.28;64.57;101527.88;5063532;28;20060;-49
2021/07/12 09:07:25;;;;;;;8.80;7.15;;;;;;;26.71;63.30;101522.81;5062943;28;20487;-50
2021/07/12 09:10:05;;;;;;;8.38;6.95;;;;;;;26.82;62.78;101516.91;5062197;28;20172;-48
2021/07/12 09:12:51;;;;;;;10.98;7.85;;;;;;;26.69;63.47;101518.81;5043881;28;20060;-49
2021/07/12 09:15:22;;;;;;;8.27;6.72;;;;;;;26.83;61.96;101518.50;5043784;28;20043;-49
2021/07/12 09:17:50;;;;;;;10.23;7.75;;;;;;;26.74;62.29;101511.13;5060599;28;20040;-49
2021/07/12 09:20:30;;;;;;;10.75;8.35;;;;;;;26.70;63.28;101521.22;5064116;28;20032;-51
2021/07/12 09:22:57;;;;;;;8.57;7.70;;;;;;;26.72;62.93;101518.13;5057041;28;20125;-52
2021/07/12 09:25:28;;;;;;;9.02;8.13;;;;;;;26.53;64.51;101510.38;5060751;28;20033;-51
2021/07/12 09:27:56;;;;;;;8.77;7.95;;;;;;;26.94;63.28;101516.94;5060384;28;20620;-52
2021/07/12 09:30:22;;;;;;;9.40;7.32;;;;;;;27.17;62.27;101520.91;5061861;28;20590;-52
2021/07/12 09:32:51;;;;;;;8.18;7.47;;;;;;;27.16;61.29;101526.75;5059266;28;20051;-51
2021/07/12 09:35:19;;;;;;;7.88;7.18;;;;;;;27.60;60.45;101523.09;5060184;28;20032;-52
2021/07/12 09:37:54;;;;;;;8.70;7.07;;;;;;;27.81;58.86;101517.47;5062300;28;20509;-53
2021/07/12 09:40:19;;;;;;;9.43;6.85;;;;;;;27.83;58.31;101511.63;5057194;28;20032;-49
2021/07/12 09:42:50;;;;;;;7.22;6.53;;;;;;;27.57;59.49;101514.72;5042246;28;20527;-52
2021/07/12 09:45:24;;;;;;;9.73;7.18;;;;;;;27.94;60.05;101510.81;5060834;28;20035;-52
2021/07/12 09:47:51;;;;;;;8.93;6.78;;;;;;;28.02;57.87;101508.28;5063433;28;20017;-50
2021/07/12 09:50:18;;;;;;;7.57;6.78;;;;;;;28.04;58.89;101503.22;5059250;28;20029;-50
2021/07/12 09:52:46;;;;;;;8.13;6.97;;;;;;;28.12;58.85;101499.53;5061494;28;20021;-49
2021/07/12 09:55:24;;;;;;;9.10;6.88;;;;;;;28.21;57.73;101494.69;5055985;28;20024;-49
2021/07/12 09:58:09;;;;;;;7.53;6.82;;;;;;;28.20;58.64;101493.09;5062256;28;20386;-51
2021/07/12 10:00:35;;;;;;;7.80;7.10;;;;;;;28.42;57.08;101489.81;5061147;28;20074;-51
2021/07/12 10:03:01;;;;;;;7.43;6.72;;;;;;;28.51;57.35;101486.88;5062244;28;20428;-52
2021/07/12 10:05:27;;;;;;;7.80;7.10;;;;;;;28.73;57.34;101482.78;5048344;28;20095;-52
2021/07/12 10:07:53;;;;;;;9.80;7.32;;;;;;;28.54;56.20;101481.47;5063733;28;20032;-50
2021/07/12 10:10:18;;;;;;;7.43;6.72;;;;;;;28.53;56.59;101484.56;5063783;28;20032;-49
2021/07/12 10:12:45;;;;;;;7.80;7.03;;;;;;;28.96;56.32;101481.03;5059543;28;20016;-50
2021/07/12 10:15:15;;;;;;;8.82;6.72;;;;;;;28.73;55.99;101475.31;5066867;28;20028;-52
2021/07/12 10:17:42;;;;;;;9.15;6.45;;;;;;;28.44;56.22;101475.69;5059978;28;20067;-51
2021/07/12 10:20:08;;;;;;;6.60;5.97;;;;;;;28.40;56.43;101472.03;5066949;28;20028;-49
2021/07/12 10:22:35;;;;;;;6.88;6.18;;;;;;;28.44;56.55;101470.16;5061689;28;20501;-50
2021/07/12 10:25:13;;;;;;;7.18;6.38;;;;;;;28.28;55.97;101470.13;5065440;28;20036;-49
2021/07/12 10:27:51;;;;;;;7.07;6.47;;;;;;;28.48;55.71;101460.81;5063367;28;20614;-52
2021/07/12 10:30:28;;;;;;;7.30;6.38;;;;;;;28.74;55.79;101454.84;5061833;28;20154;-50
2021/07/12 10:33:00;;;;;;;8.57;6.00;;;;;;;29.40;54.36;101447.78;5066805;28;20742;-49
2021/07/12 10:35:43;;;;;;;6.90;6.20;;;;;;;29.48;53.88;101441.31;5061070;28;20501;-52
2021/07/12 10:38:14;;;;;;;9.38;6.53;;;;;;;30.05;52.64;101439.81;5062755;28;20028;-52
2021/07/12 10:40:47;;;;;;;6.43;5.82;;;;;;;30.02;52.07;101438.53;5059092;28;20032;-52
2021/07/12 10:43:31;;;;;;;7.00;5.22;;;;;;;30.09;51.66;101429.63;5062031;28;20107;-49
2021/07/12 10:45:56;;;;;;;7.95;5.53;;;;;;;30.21;51.09;101423.94;5063848;28;20029;-50
2021/07/12 10:48:33;;;;;;;6.65;6.03;;;;;;;30.46;50.38;101418.06;5063594;28;20040;-51
2021/07/12 10:50:58;;;;;;;9.00;5.72;;;;;;;30.54;52.42;101411.53;5063285;28;20478;-50
2021/07/12 10:53:27;;;;;;;5.75;5.25;;;;;;;31.06;49.40;101397.00;5062114;28;20017;-51
2021/07/12 10:55:58;;;;;;;6.18;5.57;;;;;;;30.83;48.02;101399.78;5064744;28;20380;-49
2021/07/12 10:58:26;;;;;;;6.15;5.50;;;;;;;30.94;49.26;101399.97;5061128;28;20267;-52
2021/07/12 11:00:55;;;;;;;6.68;5.40;;;;;;;31.30;49.02;101392.25;5065200;28;20509;-50
2021/07/12 11:03:36;;;;;;;6.78;5.68;;;;;;;31.59;47.60;101394.22;5059689;28;20035;-52
2021/07/12 11:06:07;;;;;;;6.47;5.88;;;;;;;31.25;46.40;101387.84;5062120;28;20518;-51
2021/07/12 11:08:45;;;;;;;6.15;5.50;;;;;;;31.20;46.70;101388.13;5060926;28;20036;-50
2021/07/12 11:11:31;;;;;;;6.03;5.13;;;;;;;31.64;47.49;101377.28;5057148;28;20055;-53
2021/07/12 11:14:08;;;;;;;6.43;5.82;;;;;;;31.82;44.85;101383.88;5056512;28;20040;-51
2021/07/12 11:16:47;;;;;;;9.57;6.18;;;;;;;31.75;44.98;101380.19;5061026;28;20028;-50
2021/07/12 11:19:33;;;;;;;5.63;5.18;;;;;;;32.29;44.44;101373.31;5062907;28;20078;-53
2021/07/12 11:22:23;;;;;;;6.45;5.85;;;;;;;31.90;43.27;101367.31;5061112;28;20021;-53
2021/07/12 11:25:05;;;;;;;6.18;5.72;;;;;;;31.43;44.87;101363.16;5063464;28;20158;-51
2021/07/12 11:27:38;;;;;;;6.47;5.88;;;;;;;31.72;44.48;101350.44;5061138;28;20036;-51
2021/07/12 11:30:25;;;;;;;6.93;5.78;;;;;;;31.75;43.61;101346.94;5059036;28;20069;-52
2021/07/12 11:32:51;;;;;;;6.63;5.72;;;;;;;32.19;44.37;101344.28;5064938;28;20098;-49